Latest Coastal Weather Observations for Hogan Island

IDT60701

Issued at 3:03 pm EDT Wednesday 18 January 2017 (issued every 10 minutes, with the page automatically refreshed every 10 minutes)

About coastal observations | Map of coastal stations | Coastal observations for TAS | Marine services | Other Formats
Station Details ID: 200838 Name: HOGAN ISLAND Lat: -39.22 Lon: 146.98 Height: 116.0 m
Data from the previous 72 hours. | See also: Recent months at Hogan Island
Date/Time
EDT
Temp
°C
Wind Pressure Rain since
9am
mm
Weather Cloud Vis
km
Sea
Height
m
Swell
Dir  Spd
kts
Gust
kts
hPa Trend Height
m
Period
s
Dir
18/03:00pm 18.2 WSW 30 34 1013.3 - 0.0 - - - - - - -
18/02:30pm 18.2 WSW 30 35 1013.4 - 0.0 - - - - - - -
18/02:00pm 18.1 WSW 31 36 1013.3 - 0.0 - - - - - - -
18/01:30pm 18.1 WSW 31 36 1013.2 - 0.0 - - - - - - -
18/01:00pm 17.7 WSW 32 37 1012.9 - 0.0 - - - - - - -
18/12:30pm 17.5 WSW 31 36 1012.9 - 0.0 - - - - - - -
18/12:00pm 17.9 WSW 28 34 1012.2 - 0.0 - - - - - - -
18/11:30am 17.2 WSW 32 39 1011.9 - 0.0 - - - - - - -
18/11:00am 17.0 WSW 31 37 1011.5 - 0.0 - - - - - - -
18/10:30am 16.3 WSW 31 37 1011.0 - 0.0 - - - - - - -
18/10:00am 15.3 WSW 33 38 1010.7 - 0.0 - - - - - - -
18/09:30am 16.4 WSW 34 40 1010.2 - 0.0 - - - - - - -
18/09:00am 15.6 WSW 33 37 1009.8 - 0.2 - - - - - - -
18/08:30am 15.7 WSW 35 40 1009.4 - 0.2 - - - - - - -
18/08:00am 15.0 WSW 31 36 1009.3 - 0.2 - - - - - - -
18/07:30am 14.8 WSW 33 37 1008.7 - 0.2 - - - - - - -
18/07:00am 14.9 WSW 32 37 1008.2 - 0.2 - - - - - - -
18/06:30am 14.8 WSW 31 35 1007.8 - 0.2 - - - - - - -
18/06:00am 14.7 WSW 35 41 1007.0 - 0.2 - - - - - - -
18/05:30am 15.1 WSW 35 40 1006.1 - 0.2 - - - - - - -
18/05:00am 15.2 WSW 30 37 1006.1 - 0.2 - - - - - - -
18/04:35am 15.0 W 25 35 1005.9 - 0.2 - - - - - - -
18/04:30am 15.0 W 30 36 1006.1 - 0.2 - - - - - - -
18/04:00am 15.8 W 31 37 1006.3 - 0.2 - - - - - - -
18/03:30am 16.6 W 37 44 1005.5 - 0.0 - - - - - - -
18/03:00am 17.0 W 39 45 1005.4 - 0.0 - - - - - - -
18/02:30am 17.8 W 36 43 1005.9 - 0.0 - - - - - - -
18/02:15am 18.1 W 32 35 1006.3 - 0.0 - - - - - - -
18/02:00am 18.3 W 20 27 1007.2 - 0.0 - - - - - - -
18/01:30am 19.0 W 27 39 1007.3 - 0.0 - - - - - - -
18/01:15am 18.6 W 23 38 1007.1 - 0.0 - - - - - - -
18/01:00am 17.9 WNW 18 21 1007.3 - 0.0 - - - - - - -
18/12:30am 18.0 WNW 13 17 1007.3 - 0.0 - - - - - - -
18/12:00am 18.0 W 12 15 1007.5 - 0.0 - - - - - - -
 
Date/Time
EDT
Temp
°C
Wind Pressure Rain since
9am
mm
Weather Cloud Vis
km
Sea
Height
m
Swell
Dir  Spd
kts
Gust
kts
hPa Trend Height
m
Period
s
Dir
17/11:30pm 18.0 W 11 13 1007.9 - 0.0 - - - - - - -
17/11:00pm 18.3 W 15 17 1008.8 - 0.0 - - - - - - -
17/10:30pm 18.7 W 16 19 1008.5 - 0.0 - - - - - - -
17/10:00pm 18.4 WNW 13 15 1008.2 - 0.0 - - - - - - -
17/09:30pm 18.5 WNW 12 14 1007.4 - 0.0 - - - - - - -
17/09:00pm 18.4 WSW 14 15 1006.0 - 0.0 - - - - - - -
17/08:30pm 19.1 W 13 15 1005.4 - 0.0 - - - - - - -
17/08:00pm 19.5 W 10 12 1005.2 - 0.0 - - - - - - -
17/07:30pm 19.9 W 10 11 1005.0 - 0.0 - - - - - - -
17/07:00pm 20.6 W 17 19 1005.1 - 0.0 - - - - - - -
17/06:30pm 20.6 W 15 17 1005.6 - 0.0 - - - - - - -
17/06:00pm 21.5 W 11 13 1005.3 - 0.0 - - - - - - -
17/05:45pm 20.3 W 13 20 1005.9 - 0.0 - - - - - - -
17/05:30pm 20.3 SW 22 26 1005.4 - 0.0 - - - - - - -
17/05:04pm 21.5 SW 26 34 1005.9 - 0.0 - - - - - - -
17/05:00pm 23.4 W 29 33 1005.6 - 0.0 - - - - - - -
17/04:45pm 23.6 W 22 27 1005.5 - 0.0 - - - - - - -
17/04:30pm 23.1 WNW 18 22 1006.1 - 0.0 - - - - - - -
17/04:00pm 23.4 W 19 21 1006.4 - 0.0 - - - - - - -
17/03:30pm 24.3 W 23 27 1006.7 - 0.0 - - - - - - -
17/03:00pm 25.7 W 26 28 1006.1 - 0.0 - - - - - - -
17/02:30pm 25.0 WNW 21 27 1006.5 - 0.0 - - - - - - -
17/02:00pm 24.3 WNW 16 21 1007.4 - 0.0 - - - - - - -
17/01:30pm 25.4 WNW 13 17 1007.5 - 0.0 - - - - - - -
17/01:00pm 25.9 NW 12 14 1007.6 - 0.0 - - - - - - -
17/12:30pm 24.1 NW 10 11 1007.5 - 0.0 - - - - - - -
17/12:00pm 24.5 NW 10 12 1007.4 - 0.0 - - - - - - -
17/11:30am 24.9 NW 9 11 1007.6 - 0.0 - - - - - - -
17/11:00am 22.8 WNW 8 11 1007.9 - 0.0 - - - - - - -
17/10:30am 21.4 W 7 9 1008.2 - 0.0 - - - - - - -
17/10:00am 19.5 W 6 8 1008.5 - 0.0 - - - - - - -
17/09:30am 19.3 WNW 6 8 1008.6 - 0.0 - - - - - - -
17/09:00am 18.5 WNW 7 8 1008.6 - 0.0 - - - - - - -
17/08:30am 17.9 W 8 11 1008.7 - 0.0 - - - - - - -
17/08:00am 17.7 W 9 10 1008.5 - 0.0 - - - - - - -
17/07:30am 17.6 NW 8 10 1008.0 - 0.0 - - - - - - -
17/07:00am 17.6 NNW 10 11 1007.7 - 0.0 - - - - - - -
17/06:30am 17.3 N 10 12 1007.4 - 0.0 - - - - - - -
17/06:00am 17.0 N 9 12 1007.2 - 0.0 - - - - - - -
17/05:30am 17.0 N 9 10 1007.2 - 0.0 - - - - - - -
17/05:00am 17.2 NNE 9 14 1007.1 - 0.0 - - - - - - -
17/04:30am 16.5 NE 9 10 1007.0 - 0.0 - - - - - - -
17/04:00am 16.6 NNE 11 12 1007.1 - 0.0 - - - - - - -
17/03:30am 16.9 NNE 13 15 1007.7 - 0.0 - - - - - - -
17/03:00am 17.0 N 14 17 1007.9 - 0.0 - - - - - - -
17/02:30am 17.0 N 16 19 1008.2 - 0.0 - - - - - - -
17/02:00am 16.9 N 17 20 1008.5 - 0.0 - - - - - - -
17/01:30am 16.9 N 17 19 1009.2 - 0.0 - - - - - - -
17/01:00am 16.6 N 14 17 1009.9 - 0.0 - - - - - - -
17/12:30am 16.4 N 13 15 1010.2 - 0.0 - - - - - - -
17/12:00am 16.3 N 14 17 1010.5 - 0.0 - - - - - - -
 
Date/Time
EDT
Temp
°C
Wind Pressure Rain since
9am
mm
Weather Cloud Vis
km
Sea
Height
m
Swell
Dir  Spd
kts
Gust
kts
hPa Trend Height
m
Period
s
Dir
16/11:30pm 16.2 N 15 18 1010.7 - 0.0 - - - - - - -
16/11:00pm 16.0 N 15 17 1011.5 - 0.0 - - - - - - -
16/10:30pm 16.2 N 14 16 1011.8 - 0.0 - - - - - - -
16/10:00pm 15.9 NNE 12 14 1011.6 - 0.0 - - - - - - -
16/09:30pm 15.8 NNE 14 17 1011.8 - 0.0 - - - - - - -
16/09:00pm 15.4 NNE 15 16 1011.7 - 0.0 - - - - - - -
16/08:30pm 15.2 NNE 12 13 1012.1 - 0.0 - - - - - - -
16/08:00pm 15.5 NNE 12 13 1012.1 - 0.0 - - - - - - -
16/07:30pm 16.6 N 8 9 1012.1 - 0.0 - - - - - - -
16/07:00pm 17.4 NNE 6 7 1011.7 - 0.0 - - - - - - -
16/06:30pm 19.0 WNW 3 5 1011.9 - 0.0 - - - - - - -
16/06:00pm 18.5 WNW 5 7 1012.0 - 0.0 - - - - - - -
16/05:30pm 18.7 W 6 8 1012.5 - 0.0 - - - - - - -
16/05:00pm 18.9 WSW 8 9 1012.7 - 0.0 - - - - - - -
16/04:30pm 19.1 WSW 9 10 1013.0 - 0.0 - - - - - - -
16/04:00pm 19.2 WSW 9 11 1013.3 - 0.0 - - - - - - -
16/03:30pm 20.2 WSW 10 12 1013.5 - 0.0 - - - - - - -
16/03:00pm 19.6 WSW 12 14 1013.7 - 0.0 - - - - - - -
16/02:30pm 20.4 WSW 12 14 1014.1 - 0.0 - - - - - - -
16/02:00pm 20.0 W 12 14 1014.4 - 0.0 - - - - - - -
16/01:30pm 20.0 W 12 15 1014.8 - 0.0 - - - - - - -
16/01:00pm 20.3 W 12 14 1014.8 - 0.0 - - - - - - -
16/12:30pm 18.7 W 11 13 1014.5 - 0.0 - - - - - - -
16/12:00pm 19.3 W 12 15 1014.7 - 0.0 - - - - - - -
16/11:30am 19.3 W 15 17 1015.1 - 0.0 - - - - - - -
16/11:00am 18.4 W 14 16 1015.3 - 0.0 - - - - - - -
16/10:30am 18.8 W 15 18 1015.6 - 0.0 - - - - - - -
16/10:00am 17.2 W 17 21 1015.7 - 0.0 - - - - - - -
16/09:30am 16.5 W 17 22 1015.8 - 0.0 - - - - - - -
16/09:00am 16.3 W 16 22 1015.5 - 0.0 - - - - - - -
16/08:30am 16.0 W 16 20 1015.6 - 0.0 - - - - - - -
16/08:00am 15.5 W 15 18 1015.6 - 0.0 - - - - - - -
16/07:30am 15.1 W 18 21 1015.5 - 0.0 - - - - - - -
16/07:00am 15.0 W 16 19 1015.3 - 0.0 - - - - - - -
16/06:30am 14.6 W 15 17 1015.1 - 0.0 - - - - - - -
16/06:00am 14.5 W 19 21 1014.7 - 0.0 - - - - - - -
16/05:30am 14.6 W 17 20 1014.9 - 0.0 - - - - - - -
16/05:00am 14.8 W 17 19 1014.6 - 0.0 - - - - - - -
16/04:30am 14.9 W 14 17 1014.5 - 0.0 - - - - - - -
16/04:00am 14.7 W 16 18 1014.4 - 0.0 - - - - - - -
16/03:30am 14.7 W 18 22 1014.4 - 0.0 - - - - - - -
16/03:00am 14.9 W 18 23 1014.5 - 0.0 - - - - - - -
16/02:30am 14.9 W 17 21 1015.0 - 0.0 - - - - - - -
16/02:00am 14.7 W 17 22 1015.3 - 0.0 - - - - - - -
16/01:30am 14.9 W 16 19 1015.7 - 0.0 - - - - - - -
16/01:00am 14.8 W 20 23 1015.8 - 0.0 - - - - - - -
16/12:30am 14.7 WSW 20 25 1016.1 - 0.0 - - - - - - -
16/12:00am 14.8 W 19 25 1016.0 - 0.0 - - - - - - -
 
Date/Time
EDT
Temp
°C
Wind Pressure Rain since
9am
mm
Weather Cloud Vis
km
Sea
Height
m
Swell
Dir  Spd
kts
Gust
kts
hPa Trend Height
m
Period
s
Dir
15/11:30pm 14.7 W 19 23 1016.3 - 0.0 - - - - - - -
15/11:00pm 14.8 W 19 22 1016.6 - 0.0 - - - - - - -
15/10:30pm 14.7 W 22 26 1016.7 - 0.0 - - - - - - -
15/10:00pm 14.7 W 21 25 1016.6 - 0.0 - - - - - - -
15/09:30pm 14.8 WSW 21 27 1016.5 - 0.0 - - - - - - -
15/09:00pm 14.5 W 23 28 1016.0 - 0.0 - - - - - - -
15/08:30pm 14.6 W 26 30 1016.1 - 0.0 - - - - - - -
15/08:00pm 15.1 WSW 25 29 1016.3 - 0.0 - - - - - - -
15/07:30pm 15.3 W 28 35 1016.1 - 0.0 - - - - - - -
15/07:00pm 15.4 WSW 27 30 1015.9 - 0.0 - - - - - - -
15/06:30pm 15.7 WSW 27 32 1015.9 - 0.0 - - - - - - -
15/06:00pm 16.0 WSW 28 33 1015.6 - 0.0 - - - - - - -
15/05:30pm 16.5 WSW 28 33 1016.0 - 0.0 - - - - - - -
15/05:00pm 17.6 WSW 30 35 1015.9 - 0.0 - - - - - - -
15/04:30pm 18.1 WSW 30 34 1016.2 - 0.0 - - - - - - -
15/04:00pm 18.0 W 29 32 1016.7 - 0.0 - - - - - - -
15/03:30pm 18.3 W 27 31 1016.6 - 0.0 - - - - - - -

Other Formats:

Comma delimited format used in spreadsheet applications
http://www.bom.gov.au/fwo/IDT60701/IDT60701.94949.axf

JavaScript Object Notation format (JSON) in row-major order
http://www.bom.gov.au/fwo/IDT60701/IDT60701.94949.json